createdAt,value
2018-03-14T00:00:43.592Z,100048
2018-03-14T00:02:26.726Z,100050
2018-03-14T00:04:10.016Z,100054
2018-03-14T00:05:53.290Z,100052
2018-03-14T00:07:37.207Z,100052
2018-03-14T00:09:21.165Z,100056
2018-03-14T00:11:04.360Z,100056
2018-03-14T00:12:48.280Z,100059
2018-03-14T00:14:31.421Z,100052
2018-03-14T00:16:14.637Z,100055
2018-03-14T00:17:57.772Z,100060
2018-03-14T00:19:41.739Z,100066
2018-03-14T00:21:24.863Z,100080
2018-03-14T00:23:07.997Z,100076
2018-03-14T00:24:51.132Z,100081
2018-03-14T00:26:34.260Z,100070
2018-03-14T00:28:17.422Z,100077
2018-03-14T00:30:00.651Z,100077
2018-03-14T00:31:43.771Z,100080
2018-03-14T00:33:27.007Z,100077
2018-03-14T00:35:10.192Z,100078
2018-03-14T00:36:53.319Z,100079
2018-03-14T00:38:36.469Z,100086
2018-03-14T00:40:19.818Z,100079
2018-03-14T00:42:03.005Z,100078
2018-03-14T00:43:46.156Z,100082
2018-03-14T00:45:30.079Z,100091
2018-03-14T00:47:13.188Z,100084
2018-03-14T00:48:56.382Z,100089
2018-03-14T00:50:39.568Z,100091
2018-03-14T00:52:22.699Z,100086
2018-03-14T00:54:05.831Z,100093
2018-03-14T00:55:49.002Z,100096
2018-03-14T00:57:32.135Z,100094
2018-03-14T00:59:15.273Z,100092
2018-03-14T01:00:58.415Z,100091
2018-03-14T01:02:41.676Z,100100
2018-03-14T01:04:24.815Z,100093
2018-03-14T01:06:07.946Z,100102
2018-03-14T01:07:51.068Z,100105
2018-03-14T01:09:34.198Z,100098
2018-03-14T01:11:17.532Z,100102
2018-03-14T01:13:00.661Z,100104
2018-03-14T01:14:44.650Z,100101
2018-03-14T01:16:27.823Z,100108
2018-03-14T01:18:11.710Z,100114
2018-03-14T01:19:54.869Z,100113
2018-03-14T01:21:38.751Z,100111
2018-03-14T01:23:21.867Z,100118
2018-03-14T01:25:05.019Z,100113
2018-03-14T01:26:48.140Z,100115
2018-03-14T01:28:31.285Z,100113
2018-03-14T01:30:14.441Z,100107
2018-03-14T01:31:57.569Z,100113
2018-03-14T01:33:40.746Z,100111
2018-03-14T01:35:23.923Z,100107
2018-03-14T01:37:07.042Z,100118
2018-03-14T01:38:50.263Z,100114
2018-03-14T01:40:33.484Z,100114
2018-03-14T01:42:17.446Z,100122
2018-03-14T01:44:00.644Z,100117
2018-03-14T01:45:44.524Z,100119
2018-03-14T01:47:27.662Z,100119
2018-03-14T01:49:11.631Z,100125
2018-03-14T01:50:55.876Z,100120
2018-03-14T01:52:39.784Z,100126
2018-03-14T01:54:22.936Z,100123
2018-03-14T01:56:06.222Z,100120
2018-03-14T01:57:49.480Z,100132
2018-03-14T01:59:32.817Z,100125
2018-03-14T02:01:15.951Z,100131
2018-03-14T02:02:59.090Z,100133
2018-03-14T02:04:42.226Z,100137
2018-03-14T02:06:26.128Z,100135
2018-03-14T02:08:09.244Z,100136
2018-03-14T02:09:52.386Z,100139
2018-03-14T02:11:35.532Z,100147
2018-03-14T02:13:18.661Z,100142
2018-03-14T02:15:01.796Z,100144
2018-03-14T02:16:44.962Z,100145
2018-03-14T02:18:28.848Z,100154
2018-03-14T02:20:11.988Z,100154
2018-03-14T02:21:55.107Z,100159
2018-03-14T02:23:38.371Z,100153
2018-03-14T02:25:21.520Z,100161
2018-03-14T02:27:04.732Z,100161
2018-03-14T02:28:47.887Z,100163
2018-03-14T02:30:31.020Z,100169
2018-03-14T02:32:14.956Z,100169
2018-03-14T02:33:58.856Z,100164
2018-03-14T02:35:42.099Z,100167
2018-03-14T02:37:25.225Z,100164
2018-03-14T02:39:09.152Z,100169
2018-03-14T02:40:52.283Z,100160
2018-03-14T02:42:36.172Z,100172
2018-03-14T02:44:19.294Z,100164
2018-03-14T02:46:02.421Z,100180
2018-03-14T02:47:45.531Z,100183
2018-03-14T02:49:28.662Z,100179
2018-03-14T02:51:11.790Z,100179
2018-03-14T02:52:55.028Z,100184
2018-03-14T02:54:38.221Z,100180
2018-03-14T02:56:21.450Z,100185
2018-03-14T02:58:04.588Z,100181
2018-03-14T02:59:48.483Z,100188
2018-03-14T03:01:31.648Z,100192
2018-03-14T03:03:14.789Z,100196
2018-03-14T03:04:57.905Z,100199
2018-03-14T03:06:41.052Z,100197
2018-03-14T03:08:24.171Z,100199
2018-03-14T03:10:07.288Z,100195
2018-03-14T03:11:50.509Z,100199
2018-03-14T03:13:33.726Z,100202
2018-03-14T03:15:16.853Z,100200
2018-03-14T03:16:59.973Z,100205
2018-03-14T03:18:43.083Z,100202
2018-03-14T03:20:26.195Z,100214
2018-03-14T03:22:09.316Z,100212
2018-03-14T03:23:52.423Z,100219
2018-03-14T03:25:35.550Z,100221
2018-03-14T03:27:20.181Z,100215
2018-03-14T03:29:03.314Z,100220
2018-03-14T03:30:46.448Z,100220
2018-03-14T03:32:30.340Z,100213
2018-03-14T03:34:13.462Z,100213
2018-03-14T03:35:56.604Z,100219
2018-03-14T03:37:39.732Z,100220
2018-03-14T03:39:23.609Z,100228
2018-03-14T03:41:06.745Z,100218
2018-03-14T03:42:49.866Z,100226
2018-03-14T03:44:33.113Z,100226
2018-03-14T03:46:17.031Z,100232
2018-03-14T03:48:00.132Z,100233
2018-03-14T03:49:43.236Z,100239
2018-03-14T03:51:26.369Z,100233
2018-03-14T03:53:09.496Z,100240
2018-03-14T03:54:52.642Z,100237
2018-03-14T03:56:36.534Z,100243
2018-03-14T03:58:19.655Z,100239
2018-03-14T04:00:03.497Z,100247
2018-03-14T04:01:46.714Z,100243
2018-03-14T04:03:29.939Z,100245
2018-03-14T04:05:13.048Z,100254
2018-03-14T04:06:56.292Z,100254
2018-03-14T04:08:40.174Z,100251
2018-03-14T04:10:23.297Z,100264
2018-03-14T04:12:06.435Z,100251
2018-03-14T04:13:49.555Z,100252
2018-03-14T04:15:32.667Z,100261
2018-03-14T04:17:15.873Z,100255
2018-03-14T04:18:58.971Z,100252
2018-03-14T04:20:42.076Z,100255
2018-03-14T04:22:25.233Z,100260
2018-03-14T04:24:08.403Z,100259
2018-03-14T04:25:51.588Z,100259
2018-03-14T04:27:34.776Z,100255
2018-03-14T04:29:17.880Z,100255
2018-03-14T04:31:01.008Z,100258
2018-03-14T04:32:44.132Z,100260
2018-03-14T04:34:27.258Z,100270
2018-03-14T04:36:10.400Z,100266
2018-03-14T04:37:54.296Z,100267
2018-03-14T04:39:37.416Z,100278
2018-03-14T04:41:20.621Z,100279
2018-03-14T04:43:03.754Z,100278
2018-03-14T04:44:46.988Z,100280
2018-03-14T04:46:30.120Z,100280
2018-03-14T04:48:14.003Z,100288
2018-03-14T04:49:57.154Z,100288
2018-03-14T04:51:40.299Z,100291
2018-03-14T04:53:24.167Z,100285
2018-03-14T04:55:07.312Z,100277
2018-03-14T04:56:50.451Z,100291
2018-03-14T04:58:34.366Z,100286
2018-03-14T05:00:18.321Z,100281
2018-03-14T05:02:02.238Z,100286
2018-03-14T05:03:46.878Z,100291
2018-03-14T05:05:29.985Z,100286
2018-03-14T05:07:13.088Z,100289
2018-03-14T05:08:56.214Z,100290
2018-03-14T05:10:39.325Z,100292
2018-03-14T05:12:22.468Z,100299
2018-03-14T05:14:07.244Z,100308
2018-03-14T05:15:50.368Z,100302
2018-03-14T05:17:34.288Z,100303
2018-03-14T05:19:17.492Z,100304
2018-03-14T05:21:00.626Z,100309
2018-03-14T05:22:43.744Z,100302
2018-03-14T05:24:26.851Z,100309
2018-03-14T05:26:10.083Z,100112
2018-03-14T05:27:53.980Z,100297
2018-03-14T05:29:37.160Z,100305
2018-03-14T05:31:20.340Z,100303
2018-03-14T05:33:03.464Z,100302
2018-03-14T05:34:47.390Z,100308
2018-03-14T05:36:30.560Z,100309
2018-03-14T05:38:13.716Z,100306
2018-03-14T05:39:56.832Z,100311
2018-03-14T05:41:40.770Z,100310
2018-03-14T05:43:23.906Z,100319
2018-03-14T05:45:07.790Z,100325
2018-03-14T05:46:50.908Z,100325
2018-03-14T05:48:34.025Z,100324
2018-03-14T05:50:17.140Z,100321
2018-03-14T05:52:00.300Z,100332
2018-03-14T05:53:43.414Z,100332
2018-03-14T05:55:26.521Z,100332
2018-03-14T05:57:09.754Z,100321
2018-03-14T05:58:53.657Z,100332
2018-03-14T06:00:36.773Z,100331
2018-03-14T06:02:19.922Z,100336
2018-03-14T06:04:03.792Z,100338
2018-03-14T06:05:47.074Z,100340
2018-03-14T06:07:30.279Z,100346
2018-03-14T06:09:13.382Z,100343
2018-03-14T06:10:56.522Z,100347
2018-03-14T06:12:39.649Z,100347
2018-03-14T06:14:23.584Z,100354
2018-03-14T06:16:07.452Z,100359
2018-03-14T06:17:50.581Z,100357
2018-03-14T06:19:33.741Z,100348
2018-03-14T06:21:16.954Z,100357
2018-03-14T06:23:00.138Z,100350
2018-03-14T06:24:43.258Z,100362
2018-03-14T06:26:26.368Z,100363
2018-03-14T06:28:09.493Z,100359
2018-03-14T06:29:52.624Z,100360
2018-03-14T06:31:35.762Z,100366
2018-03-14T06:33:18.909Z,100363
2018-03-14T06:35:02.126Z,100373
2018-03-14T06:36:46.069Z,100369
2018-03-14T06:38:29.203Z,100378
2018-03-14T06:40:12.356Z,100373
2018-03-14T06:41:55.448Z,100379
2018-03-14T06:43:38.569Z,100382
2018-03-14T06:45:21.704Z,100394
2018-03-14T06:47:04.926Z,100395
2018-03-14T06:48:48.042Z,100400
2018-03-14T06:50:31.161Z,100394
2018-03-14T06:52:14.276Z,100404
2018-03-14T06:53:57.471Z,100399
2018-03-14T06:55:40.584Z,100396
2018-03-14T06:57:23.714Z,100406
2018-03-14T06:59:24.673Z,100393
2018-03-14T07:01:26.540Z,100401
2018-03-14T07:03:28.282Z,100409
2018-03-14T07:05:30.108Z,100413
2018-03-14T07:07:13.220Z,100410
2018-03-14T07:08:56.361Z,100404
2018-03-14T07:10:40.280Z,100411
2018-03-14T07:12:23.428Z,100417
2018-03-14T07:14:07.328Z,100414
2018-03-14T07:15:50.451Z,100415
2018-03-14T07:17:33.569Z,100413
2018-03-14T07:19:16.783Z,100418
2018-03-14T07:20:59.979Z,100425
2018-03-14T07:22:43.115Z,100421
2018-03-14T07:24:26.312Z,100431
2018-03-14T07:26:09.422Z,100425
2018-03-14T07:27:52.546Z,100424
2018-03-14T07:29:35.649Z,100425
2018-03-14T07:31:18.768Z,100424
2018-03-14T07:33:01.892Z,100441
2018-03-14T07:34:45.044Z,100430
2018-03-14T07:36:28.280Z,100430
2018-03-14T07:38:12.178Z,100438
2018-03-14T07:39:55.321Z,100446
2018-03-14T07:41:38.444Z,100439
2018-03-14T07:43:22.349Z,100447
2018-03-14T07:45:05.568Z,100449
2018-03-14T07:46:48.712Z,100449
2018-03-14T07:48:32.648Z,100444
2018-03-14T07:50:16.511Z,100447
2018-03-14T07:51:59.737Z,100449
2018-03-14T07:53:43.000Z,100454
2018-03-14T07:55:26.936Z,100452
2018-03-14T07:57:10.069Z,100453
2018-03-14T07:58:54.006Z,100457
2018-03-14T08:00:37.931Z,100459
2018-03-14T08:02:21.060Z,100456
2018-03-14T08:04:04.974Z,100454
2018-03-14T08:05:48.110Z,100459
2018-03-14T08:07:31.993Z,100452
2018-03-14T08:09:15.139Z,100462
2018-03-14T08:10:58.250Z,100453
2018-03-14T08:12:41.474Z,100455
2018-03-14T08:14:24.605Z,100464
2018-03-14T08:16:07.833Z,100455
2018-03-14T08:17:51.735Z,100461
2018-03-14T08:19:34.874Z,100463
2018-03-14T08:21:17.984Z,100457
2018-03-14T08:23:01.107Z,100469
2018-03-14T08:24:44.322Z,100460
2018-03-14T08:26:27.445Z,100463
2018-03-14T08:28:10.659Z,100464
2018-03-14T08:29:53.880Z,100459
2018-03-14T08:31:37.000Z,100449
2018-03-14T08:33:21.215Z,100453
2018-03-14T08:35:04.370Z,100456
2018-03-14T08:36:48.264Z,100462
2018-03-14T08:38:31.476Z,100468
2018-03-14T08:40:14.602Z,100456
2018-03-14T08:41:57.712Z,100476
2018-03-14T08:43:40.860Z,100476
2018-03-14T08:45:24.768Z,100482
2018-03-14T08:47:07.899Z,100470
2018-03-14T08:48:52.548Z,100478
2018-03-14T08:50:35.774Z,100477
2018-03-14T08:52:18.992Z,100473
2018-03-14T08:54:02.204Z,100472
2018-03-14T08:55:45.382Z,100479
2018-03-14T08:57:29.247Z,100485
2018-03-14T08:59:12.481Z,100476
2018-03-14T09:00:55.593Z,100479
2018-03-14T09:02:38.809Z,100492
2018-03-14T09:04:21.947Z,100487
2018-03-14T09:06:05.873Z,100493
2018-03-14T09:07:49.789Z,100492
2018-03-14T09:09:32.986Z,100492
2018-03-14T09:11:16.148Z,100505
2018-03-14T09:13:00.044Z,100499
2018-03-14T09:14:43.248Z,100501
2018-03-14T09:16:26.381Z,100492
2018-03-14T09:18:09.488Z,100499
2018-03-14T09:19:52.648Z,100502
2018-03-14T09:21:36.541Z,100507
2018-03-14T09:23:19.658Z,100515
2018-03-14T09:25:02.821Z,100508
2018-03-14T09:26:46.720Z,100505
2018-03-14T09:28:29.833Z,100496
2018-03-14T09:30:12.963Z,100504
2018-03-14T09:31:56.113Z,100500
2018-03-14T09:33:40.003Z,100498
2018-03-14T09:35:23.250Z,100504
2018-03-14T09:37:06.397Z,100504
2018-03-14T09:38:49.537Z,100499
2018-03-14T09:40:32.684Z,100496
2018-03-14T09:42:15.793Z,100503
2018-03-14T09:43:58.920Z,100507
2018-03-14T09:45:42.048Z,100507
2018-03-14T09:47:25.174Z,100512
2018-03-14T09:49:09.054Z,100507
2018-03-14T09:50:52.208Z,100509
2018-03-14T09:52:35.335Z,100512
2018-03-14T09:54:18.453Z,100503
2018-03-14T09:56:02.370Z,100507
2018-03-14T09:57:45.485Z,100509
2018-03-14T09:59:28.602Z,100510
2018-03-14T10:01:11.740Z,100512
2018-03-14T10:02:55.664Z,100516
2018-03-14T10:04:39.537Z,100518
2018-03-14T10:06:23.550Z,100513
2018-03-14T10:08:07.446Z,100516
2018-03-14T10:09:50.903Z,100512
2018-03-14T10:11:34.090Z,100516
2018-03-14T10:13:17.203Z,100520
2018-03-14T10:15:00.332Z,100515
2018-03-14T10:16:43.443Z,100517
2018-03-14T10:18:26.876Z,100512
2018-03-14T10:20:10.010Z,100520
2018-03-14T10:21:53.950Z,100521
2018-03-14T10:23:37.059Z,100524
2018-03-14T10:25:20.190Z,100508
2018-03-14T10:27:04.081Z,100512
2018-03-14T10:28:47.295Z,100519
2018-03-14T10:30:30.448Z,100522
2018-03-14T10:32:14.337Z,100518
2018-03-14T10:33:57.466Z,100525
2018-03-14T10:35:40.826Z,100522
2018-03-14T10:37:24.782Z,100530
2018-03-14T10:39:08.034Z,100526
2018-03-14T10:40:51.276Z,100532
2018-03-14T10:42:34.425Z,100530
2018-03-14T10:44:18.314Z,100532
2018-03-14T10:46:01.540Z,100529
2018-03-14T10:47:44.683Z,100537
2018-03-14T10:49:28.625Z,100531
2018-03-14T10:51:11.859Z,100532
2018-03-14T10:52:55.711Z,100490
2018-03-14T10:54:38.879Z,100540
2018-03-14T10:56:22.093Z,100542
2018-03-14T10:58:05.321Z,100526
2018-03-14T10:59:49.204Z,100536
2018-03-14T11:01:38.008Z,100545
2018-03-14T11:03:22.035Z,100539
2018-03-14T11:05:05.210Z,100545
2018-03-14T11:06:48.355Z,100548
2018-03-14T11:08:31.491Z,100549
2018-03-14T11:10:14.695Z,100545
2018-03-14T11:11:57.917Z,100551
2018-03-14T11:13:41.188Z,100551
2018-03-14T11:15:24.319Z,100552
2018-03-14T11:17:07.489Z,100558
2018-03-14T11:18:51.357Z,100559
2018-03-14T11:20:34.548Z,100553
2018-03-14T11:22:18.441Z,100560
2018-03-14T11:24:01.593Z,100559
2018-03-14T11:25:45.460Z,100567
2018-03-14T11:27:28.619Z,100566
2018-03-14T11:29:12.364Z,100561
2018-03-14T11:30:55.488Z,100564
2018-03-14T11:32:39.421Z,100567
2018-03-14T11:34:22.536Z,100557
2018-03-14T11:36:06.437Z,100564
2018-03-14T11:37:49.699Z,100559
2018-03-14T11:39:33.600Z,100562
2018-03-14T11:41:16.725Z,100557
2018-03-14T11:42:59.848Z,100559
2018-03-14T11:44:42.991Z,100563
2018-03-14T11:46:26.908Z,100555
2018-03-14T11:48:10.113Z,100553
2018-03-14T11:49:53.247Z,100553
2018-03-14T11:51:36.510Z,100559
2018-03-14T11:53:19.622Z,100563
2018-03-14T11:55:02.814Z,100555
2018-03-14T11:56:45.960Z,100570
2018-03-14T11:58:29.072Z,100573
2018-03-14T12:00:12.259Z,100576
2018-03-14T12:01:56.153Z,100577
2018-03-14T12:03:39.290Z,100569
2018-03-14T12:05:22.404Z,100577
2018-03-14T12:07:05.560Z,100573
2018-03-14T12:08:48.693Z,100579
2018-03-14T12:10:31.812Z,100580
2018-03-14T12:12:14.956Z,100579
2018-03-14T12:13:58.077Z,100576
2018-03-14T12:15:41.248Z,100571
2018-03-14T12:17:24.428Z,100573
2018-03-14T12:19:07.635Z,100575
2018-03-14T12:20:52.291Z,100575
2018-03-14T12:22:35.463Z,100574
2018-03-14T12:24:18.576Z,100574
2018-03-14T12:26:01.692Z,100567
2018-03-14T12:27:44.875Z,100570
2018-03-14T12:29:28.801Z,100567
2018-03-14T12:31:11.925Z,100561
2018-03-14T12:32:55.829Z,100554
2018-03-14T12:34:38.953Z,100553
2018-03-14T12:36:22.272Z,100557
2018-03-14T12:38:05.400Z,100555
2018-03-14T12:39:48.551Z,100560
2018-03-14T12:41:32.441Z,100560
2018-03-14T12:43:15.639Z,100558
2018-03-14T12:44:58.801Z,100564
2018-03-14T12:46:41.940Z,100570
2018-03-14T12:48:25.056Z,100574
2018-03-14T12:50:08.189Z,100564
2018-03-14T12:51:51.320Z,100573
2018-03-14T12:53:34.449Z,100571
2018-03-14T12:55:17.602Z,100575
2018-03-14T12:57:01.521Z,100574
2018-03-14T12:58:44.986Z,100582
2018-03-14T13:00:28.116Z,100580
2018-03-14T13:02:11.233Z,100575
2018-03-14T13:03:54.374Z,100582
2018-03-14T13:05:37.510Z,100586
2018-03-14T13:07:20.625Z,100590
2018-03-14T13:09:03.807Z,100586
2018-03-14T13:10:46.951Z,100580
2018-03-14T13:12:30.397Z,100580
2018-03-14T13:14:13.817Z,100583
2018-03-14T13:15:56.972Z,100580
2018-03-14T13:17:40.140Z,100575
2018-03-14T13:19:23.286Z,100583
2018-03-14T13:21:07.305Z,100588
2018-03-14T13:22:50.373Z,100586
2018-03-14T13:24:33.557Z,100592
2018-03-14T13:26:17.486Z,100586
2018-03-14T13:28:01.388Z,100580
2018-03-14T13:29:44.545Z,100582
2018-03-14T13:31:28.475Z,100583
2018-03-14T13:33:12.357Z,100592
2018-03-14T13:34:55.624Z,100592
2018-03-14T13:36:39.534Z,100580
2018-03-14T13:38:22.964Z,100586
2018-03-14T13:40:06.149Z,100587
2018-03-14T13:41:49.255Z,100592
2018-03-14T13:43:32.434Z,100582
2018-03-14T13:45:15.558Z,100579
2018-03-14T13:46:59.443Z,100577
2018-03-14T13:48:42.576Z,100566
2018-03-14T13:50:25.709Z,100579
2018-03-14T13:52:08.830Z,100587
2018-03-14T13:53:52.193Z,100587
2018-03-14T13:55:35.392Z,100582
2018-03-14T13:57:18.536Z,100575
2018-03-14T13:59:01.723Z,100581
2018-03-14T14:00:44.924Z,100586
2018-03-14T14:02:28.805Z,100589
2018-03-14T14:04:11.975Z,100588
2018-03-14T14:05:55.871Z,100577
2018-03-14T14:07:38.976Z,100596
2018-03-14T14:09:24.294Z,100594
2018-03-14T14:11:09.442Z,100595
2018-03-14T14:12:54.380Z,100600
2018-03-14T14:14:37.613Z,100596
2018-03-14T14:16:20.801Z,100605
2018-03-14T14:18:03.979Z,100588
2018-03-14T14:19:47.869Z,100594
2018-03-14T14:21:31.026Z,100605
2018-03-14T14:23:14.938Z,100597
2018-03-14T14:24:58.099Z,100600
2018-03-14T14:26:41.184Z,100582
2018-03-14T14:28:24.355Z,100592
2018-03-14T14:30:07.506Z,100592
2018-03-14T14:31:50.733Z,100590
2018-03-14T14:33:34.632Z,100593
2018-03-14T14:35:17.806Z,100590
2018-03-14T14:37:01.693Z,100589
2018-03-14T14:38:44.952Z,100591
2018-03-14T14:40:28.852Z,100588
2018-03-14T14:42:12.041Z,100591
2018-03-14T14:43:55.216Z,100588
2018-03-14T14:45:38.354Z,100575
2018-03-14T14:47:21.536Z,100580
2018-03-14T14:49:04.677Z,100591
2018-03-14T14:50:48.619Z,100587
2018-03-14T14:52:32.611Z,100587
2018-03-14T14:54:15.746Z,100594
2018-03-14T14:55:58.876Z,100595
2018-03-14T14:57:42.828Z,100596
2018-03-14T14:59:26.728Z,100593
2018-03-14T15:01:09.848Z,100596
2018-03-14T15:02:52.974Z,100595
2018-03-14T15:04:36.168Z,100598
2018-03-14T15:06:19.349Z,100599
2018-03-14T15:08:02.492Z,100592
2018-03-14T15:09:45.621Z,100596
2018-03-14T15:11:28.784Z,100598
2018-03-14T15:13:12.669Z,100598
2018-03-14T15:14:55.859Z,100590
2018-03-14T15:16:39.020Z,100599
2018-03-14T15:18:22.162Z,100596
2018-03-14T15:20:05.364Z,100595
2018-03-14T15:21:49.299Z,100597
2018-03-14T15:23:32.626Z,100592
2018-03-14T15:25:15.805Z,100583
2018-03-14T15:26:59.073Z,100591
2018-03-14T15:28:43.007Z,100582
2018-03-14T15:30:26.222Z,100581
2018-03-14T15:32:09.389Z,100587
2018-03-14T15:33:52.531Z,100590
2018-03-14T15:35:35.684Z,100592
2018-03-14T15:37:19.608Z,100587
2018-03-14T15:39:03.647Z,100597
2018-03-14T15:40:47.577Z,100590
2018-03-14T15:42:31.005Z,100598
2018-03-14T15:44:14.915Z,100597
2018-03-14T15:45:59.588Z,100600
2018-03-14T15:47:42.727Z,100596
2018-03-14T15:49:25.845Z,100603
2018-03-14T15:51:09.019Z,100595
2018-03-14T15:52:52.176Z,100608
2018-03-14T15:54:35.342Z,100614
2018-03-14T15:56:18.492Z,100607
2018-03-14T15:58:02.492Z,100604
2018-03-14T15:59:45.645Z,100602
2018-03-14T16:01:28.800Z,100607
2018-03-14T16:03:12.106Z,100610
2018-03-14T16:04:55.405Z,100605
2018-03-14T16:06:38.562Z,100604
2018-03-14T16:08:21.700Z,100612
2018-03-14T16:10:05.029Z,100605
2018-03-14T16:11:48.279Z,100609
2018-03-14T16:13:32.220Z,100617
2018-03-14T16:15:15.353Z,100611
2018-03-14T16:16:59.370Z,100622
2018-03-14T16:18:42.604Z,100614
2018-03-14T16:20:26.498Z,100617
2018-03-14T16:22:09.766Z,100623
2018-03-14T16:23:52.968Z,100624
2018-03-14T16:25:37.002Z,100629
2018-03-14T16:27:21.039Z,100626
2018-03-14T16:29:04.932Z,100630
2018-03-14T16:30:48.237Z,100626
2018-03-14T16:32:31.409Z,100630
2018-03-14T16:34:14.551Z,100634
2018-03-14T16:35:57.849Z,100631
2018-03-14T16:37:41.889Z,100633
2018-03-14T16:39:25.821Z,100631
2018-03-14T16:41:09.718Z,100633
2018-03-14T16:42:52.869Z,100631
2018-03-14T16:44:36.811Z,100635
2018-03-14T16:46:19.935Z,100640
2018-03-14T16:48:03.862Z,100643
2018-03-14T16:49:47.794Z,100646
2018-03-14T16:51:31.081Z,100652
2018-03-14T16:53:14.232Z,100645
2018-03-14T16:54:58.113Z,100650
2018-03-14T16:56:41.258Z,100642
2018-03-14T16:58:24.400Z,100654
2018-03-14T17:00:08.356Z,100651
2018-03-14T17:01:51.660Z,100645
2018-03-14T17:03:35.746Z,100654
2018-03-14T17:05:18.994Z,100643
2018-03-14T17:07:02.955Z,100645
2018-03-14T17:08:46.125Z,100647
2018-03-14T17:10:29.295Z,100643
2018-03-14T17:12:12.710Z,100646
2018-03-14T17:13:56.601Z,100640
2018-03-14T17:15:39.773Z,100646
2018-03-14T17:17:22.898Z,100647
2018-03-14T17:19:06.016Z,100635
2018-03-14T17:20:49.152Z,100641
2018-03-14T17:22:32.319Z,100657
2018-03-14T17:24:15.552Z,100655
2018-03-14T17:25:59.631Z,100653
2018-03-14T17:27:42.770Z,100654
2018-03-14T17:29:25.896Z,100654
2018-03-14T17:31:09.132Z,100656
2018-03-14T17:32:52.286Z,100662
2018-03-14T17:34:35.438Z,100662
2018-03-14T17:36:18.556Z,100652
2018-03-14T17:38:01.674Z,100665
2018-03-14T17:39:44.817Z,100661
2018-03-14T17:41:27.931Z,100668
2018-03-14T17:43:11.178Z,100660
2018-03-14T17:44:55.070Z,100670
2018-03-14T17:46:38.236Z,100665
2018-03-14T17:48:21.404Z,100663
2018-03-14T17:50:04.569Z,100670
2018-03-14T17:51:47.699Z,100670
2018-03-14T17:53:30.840Z,100669
2018-03-14T17:55:13.974Z,100664
2018-03-14T17:56:57.078Z,100669
2018-03-14T17:58:40.249Z,100659
2018-03-14T18:00:23.396Z,100662
2018-03-14T18:02:06.550Z,100663
2018-03-14T18:03:49.752Z,100665
2018-03-14T18:05:32.888Z,100668
2018-03-14T18:07:16.102Z,100669
2018-03-14T18:08:59.353Z,100665
2018-03-14T18:10:42.537Z,100669
2018-03-14T18:12:25.693Z,100668
2018-03-14T18:14:09.775Z,100663
2018-03-14T18:15:52.914Z,100668
2018-03-14T18:17:36.138Z,100673
2018-03-14T18:19:19.357Z,100672
2018-03-14T18:21:02.561Z,100666
2018-03-14T18:22:45.699Z,100668
2018-03-14T18:24:29.620Z,100674
2018-03-14T18:26:12.773Z,100670
2018-03-14T18:27:56.204Z,100669
2018-03-14T18:29:39.323Z,100673
2018-03-14T18:31:22.504Z,100671
2018-03-14T18:33:06.393Z,100665
2018-03-14T18:34:49.509Z,100673
2018-03-14T18:36:32.641Z,100678
2018-03-14T18:38:15.857Z,100667
2018-03-14T18:39:58.972Z,100669
2018-03-14T18:41:42.589Z,100673
2018-03-14T18:43:25.765Z,100674
2018-03-14T18:45:09.637Z,100675
2018-03-14T18:46:52.778Z,100665
2018-03-14T18:48:35.919Z,100673
2018-03-14T18:50:19.118Z,100669
2018-03-14T18:52:02.336Z,100679
2018-03-14T18:53:45.501Z,100674
2018-03-14T18:55:28.677Z,100672
2018-03-14T18:57:11.907Z,100664
2018-03-14T18:58:55.025Z,100669
2018-03-14T19:00:38.932Z,100676
2018-03-14T19:02:22.072Z,100668
2018-03-14T19:04:05.292Z,100679
2018-03-14T19:05:48.512Z,100671
2018-03-14T19:07:32.416Z,100675
2018-03-14T19:09:15.662Z,100673
2018-03-14T19:10:58.782Z,100671
2018-03-14T19:12:41.979Z,100667
2018-03-14T19:14:25.911Z,100665
2018-03-14T19:16:09.141Z,100668
2018-03-14T19:17:52.276Z,100673
2018-03-14T19:19:36.217Z,100662
2018-03-14T19:21:19.353Z,100673
2018-03-14T19:23:02.533Z,100670
2018-03-14T19:24:45.660Z,100675
2018-03-14T19:26:28.779Z,100670
2018-03-14T19:28:12.700Z,100665
2018-03-14T19:29:55.848Z,100668
2018-03-14T19:31:39.028Z,100670
2018-03-14T19:33:22.184Z,100673
2018-03-14T19:35:05.331Z,100671
2018-03-14T19:36:48.464Z,100666
2018-03-14T19:38:31.588Z,100660
2018-03-14T19:40:14.825Z,100667
2018-03-14T19:41:58.724Z,100667
2018-03-14T19:43:46.887Z,100674
2018-03-14T19:45:30.127Z,100680
2018-03-14T19:47:14.030Z,100670
2018-03-14T19:48:57.212Z,100672
2018-03-14T19:50:40.346Z,100678
2018-03-14T19:52:23.499Z,100667
2018-03-14T19:54:06.613Z,100672
2018-03-14T19:55:49.767Z,100666
2018-03-14T19:57:33.056Z,100663
2018-03-14T19:59:16.935Z,100671
2018-03-14T20:01:00.107Z,100665
2018-03-14T20:02:44.007Z,100665
2018-03-14T20:04:27.157Z,100657
2018-03-14T20:06:10.354Z,100658
2018-03-14T20:07:53.481Z,100660
2018-03-14T20:09:36.711Z,100655
2018-03-14T20:11:20.622Z,100659
2018-03-14T20:13:03.758Z,100667
2018-03-14T20:14:46.917Z,100657
2018-03-14T20:16:30.041Z,100659
2018-03-14T20:18:14.029Z,100660
2018-03-14T20:19:58.511Z,100634
2018-03-14T20:21:41.740Z,100654
2018-03-14T20:23:24.861Z,100661
2018-03-14T20:25:08.034Z,100656
2018-03-14T20:26:51.154Z,100655
2018-03-14T20:28:35.041Z,100664
2018-03-14T20:30:18.190Z,100663
2018-03-14T20:32:01.323Z,100660
2018-03-14T20:33:45.224Z,100653
2018-03-14T20:35:28.447Z,100655
2018-03-14T20:37:11.578Z,100652
2018-03-14T20:38:54.714Z,100655
2018-03-14T20:40:38.981Z,100661
2018-03-14T20:42:22.097Z,100656
2018-03-14T20:44:05.246Z,100662
2018-03-14T20:45:48.504Z,100659
2018-03-14T20:47:32.396Z,100665
2018-03-14T20:49:15.523Z,100659
2018-03-14T20:50:58.777Z,100668
2018-03-14T20:52:42.677Z,100665
2018-03-14T20:54:25.790Z,100664
2018-03-14T20:56:08.944Z,100668
2018-03-14T20:57:52.842Z,100664
2018-03-14T20:59:35.975Z,100667
2018-03-14T21:01:20.619Z,100660
2018-03-14T21:03:03.762Z,100662
2018-03-14T21:04:47.693Z,100661
2018-03-14T21:06:30.927Z,100667
2018-03-14T21:08:14.802Z,100666
2018-03-14T21:09:57.916Z,100653
2018-03-14T21:11:41.098Z,100663
2018-03-14T21:13:24.989Z,100662
2018-03-14T21:15:08.116Z,100659
2018-03-14T21:16:51.265Z,100659
2018-03-14T21:18:35.166Z,100658
2018-03-14T21:20:18.282Z,100660
2018-03-14T21:22:01.402Z,100654
2018-03-14T21:23:44.654Z,100659
2018-03-14T21:25:28.558Z,100671
2018-03-14T21:27:11.683Z,100664
2018-03-14T21:28:54.806Z,100663
2018-03-14T21:30:38.698Z,100660